sensor_id;sensor_type;location;lat;lon;timestamp;temperature;humidity
83553;DHT22;73510;50.866;5.420;2024-02-23T00:00:51;7.80;62.20
83553;DHT22;73510;50.866;5.420;2024-02-23T00:03:17;7.70;63.30
83553;DHT22;73510;50.866;5.420;2024-02-23T00:05:43;7.60;63.20
83553;DHT22;73510;50.866;5.420;2024-02-23T00:08:08;7.60;63.50
83553;DHT22;73510;50.866;5.420;2024-02-23T00:10:34;7.50;63.50
83553;DHT22;73510;50.866;5.420;2024-02-23T00:13:00;7.50;63.90
83553;DHT22;73510;50.866;5.420;2024-02-23T00:15:26;7.50;64.00
83553;DHT22;73510;50.866;5.420;2024-02-23T00:17:52;7.50;64.10
83553;DHT22;73510;50.866;5.420;2024-02-23T00:20:17;7.50;64.40
83553;DHT22;73510;50.866;5.420;2024-02-23T00:22:43;7.50;64.40
83553;DHT22;73510;50.866;5.420;2024-02-23T00:25:09;7.50;64.70
83553;DHT22;73510;50.866;5.420;2024-02-23T00:27:35;7.50;64.90
83553;DHT22;73510;50.866;5.420;2024-02-23T00:30:00;7.50;64.90
83553;DHT22;73510;50.866;5.420;2024-02-23T00:32:26;7.40;65.00
83553;DHT22;73510;50.866;5.420;2024-02-23T00:34:52;7.40;64.70
83553;DHT22;73510;50.866;5.420;2024-02-23T00:37:17;7.30;65.20
83553;DHT22;73510;50.866;5.420;2024-02-23T00:39:43;7.40;65.40
83553;DHT22;73510;50.866;5.420;2024-02-23T00:42:09;7.30;65.30
83553;DHT22;73510;50.866;5.420;2024-02-23T00:44:35;7.20;65.30
83553;DHT22;73510;50.866;5.420;2024-02-23T00:47:00;7.20;65.40
83553;DHT22;73510;50.866;5.420;2024-02-23T00:49:27;7.20;65.60
83553;DHT22;73510;50.866;5.420;2024-02-23T00:51:54;7.20;65.20
83553;DHT22;73510;50.866;5.420;2024-02-23T00:54:20;7.20;65.40
83553;DHT22;73510;50.866;5.420;2024-02-23T00:56:46;7.20;65.30
83553;DHT22;73510;50.866;5.420;2024-02-23T00:59:12;7.10;65.40
83553;DHT22;73510;50.866;5.420;2024-02-23T01:01:37;7.00;65.30
83553;DHT22;73510;50.866;5.420;2024-02-23T01:04:03;7.00;65.20
83553;DHT22;73510;50.866;5.420;2024-02-23T01:06:29;7.00;64.90
83553;DHT22;73510;50.866;5.420;2024-02-23T01:08:55;7.00;64.90
83553;DHT22;73510;50.866;5.420;2024-02-23T01:11:20;6.90;64.90
83553;DHT22;73510;50.866;5.420;2024-02-23T01:13:46;6.90;65.00
83553;DHT22;73510;50.866;5.420;2024-02-23T01:16:12;6.90;65.30
83553;DHT22;73510;50.866;5.420;2024-02-23T01:18:37;6.90;65.10
83553;DHT22;73510;50.866;5.420;2024-02-23T01:21:04;6.90;65.40
83553;DHT22;73510;50.866;5.420;2024-02-23T01:23:30;6.90;65.20
83553;DHT22;73510;50.866;5.420;2024-02-23T01:25:55;6.80;65.10
83553;DHT22;73510;50.866;5.420;2024-02-23T01:28:21;6.80;65.40
83553;DHT22;73510;50.866;5.420;2024-02-23T01:30:47;6.80;65.60
83553;DHT22;73510;50.866;5.420;2024-02-23T01:33:12;6.80;65.10
83553;DHT22;73510;50.866;5.420;2024-02-23T01:35:38;6.80;65.60
83553;DHT22;73510;50.866;5.420;2024-02-23T01:38:04;6.70;65.60
83553;DHT22;73510;50.866;5.420;2024-02-23T01:40:30;6.80;65.50
83553;DHT22;73510;50.866;5.420;2024-02-23T01:43:05;6.90;65.40
83553;DHT22;73510;50.866;5.420;2024-02-23T01:45:32;6.90;65.40
83553;DHT22;73510;50.866;5.420;2024-02-23T01:47:58;6.90;65.20
83553;DHT22;73510;50.866;5.420;2024-02-23T01:50:25;7.00;65.20
83553;DHT22;73510;50.866;5.420;2024-02-23T01:52:52;7.00;65.40
83553;DHT22;73510;50.866;5.420;2024-02-23T01:55:22;7.00;65.10
83553;DHT22;73510;50.866;5.420;2024-02-23T01:57:48;7.10;64.80
83553;DHT22;73510;50.866;5.420;2024-02-23T02:00:17;7.10;64.90
83553;DHT22;73510;50.866;5.420;2024-02-23T02:02:45;7.20;65.00
83553;DHT22;73510;50.866;5.420;2024-02-23T02:05:12;7.20;64.60
83553;DHT22;73510;50.866;5.420;2024-02-23T02:07:37;7.20;64.40
83553;DHT22;73510;50.866;5.420;2024-02-23T02:10:08;7.20;64.60
83553;DHT22;73510;50.866;5.420;2024-02-23T02:12:33;7.20;64.50
83553;DHT22;73510;50.866;5.420;2024-02-23T02:14:59;7.20;64.10
83553;DHT22;73510;50.866;5.420;2024-02-23T02:17:27;7.30;64.20
83553;DHT22;73510;50.866;5.420;2024-02-23T02:19:53;7.30;64.30
83553;DHT22;73510;50.866;5.420;2024-02-23T02:22:19;7.30;63.90
83553;DHT22;73510;50.866;5.420;2024-02-23T02:24:45;7.30;64.00
83553;DHT22;73510;50.866;5.420;2024-02-23T02:27:13;7.30;63.60
83553;DHT22;73510;50.866;5.420;2024-02-23T02:29:39;7.30;63.70
83553;DHT22;73510;50.866;5.420;2024-02-23T02:32:05;7.30;63.40
83553;DHT22;73510;50.866;5.420;2024-02-23T02:34:31;7.30;63.70
83553;DHT22;73510;50.866;5.420;2024-02-23T02:36:56;7.30;63.70
83553;DHT22;73510;50.866;5.420;2024-02-23T02:39:22;7.30;63.60
83553;DHT22;73510;50.866;5.420;2024-02-23T02:41:48;7.30;63.40
83553;DHT22;73510;50.866;5.420;2024-02-23T02:44:14;7.20;63.70
83553;DHT22;73510;50.866;5.420;2024-02-23T02:46:41;7.20;63.80
83553;DHT22;73510;50.866;5.420;2024-02-23T02:49:06;7.00;63.90
83553;DHT22;73510;50.866;5.420;2024-02-23T02:51:32;7.00;63.90
83553;DHT22;73510;50.866;5.420;2024-02-23T02:53:58;6.90;64.10
83553;DHT22;73510;50.866;5.420;2024-02-23T02:56:23;6.90;64.10
83553;DHT22;73510;50.866;5.420;2024-02-23T02:58:49;6.90;64.50
83553;DHT22;73510;50.866;5.420;2024-02-23T03:01:15;6.80;64.30
83553;DHT22;73510;50.866;5.420;2024-02-23T03:03:41;6.80;64.30
83553;DHT22;73510;50.866;5.420;2024-02-23T03:06:07;6.80;64.60
83553;DHT22;73510;50.866;5.420;2024-02-23T03:08:33;6.80;64.90
83553;DHT22;73510;50.866;5.420;2024-02-23T03:10:59;6.70;64.80
83553;DHT22;73510;50.866;5.420;2024-02-23T03:13:24;6.70;65.00
83553;DHT22;73510;50.866;5.420;2024-02-23T03:15:50;6.80;64.90
83553;DHT22;73510;50.866;5.420;2024-02-23T03:18:16;6.80;65.20
83553;DHT22;73510;50.866;5.420;2024-02-23T03:20:42;6.80;65.10
83553;DHT22;73510;50.866;5.420;2024-02-23T03:23:08;6.90;65.00
83553;DHT22;73510;50.866;5.420;2024-02-23T03:25:34;7.00;64.80
83553;DHT22;73510;50.866;5.420;2024-02-23T03:27:59;7.00;64.60
83553;DHT22;73510;50.866;5.420;2024-02-23T03:30:25;7.00;64.50
83553;DHT22;73510;50.866;5.420;2024-02-23T03:32:51;7.00;64.80
83553;DHT22;73510;50.866;5.420;2024-02-23T03:35:17;7.00;65.00
83553;DHT22;73510;50.866;5.420;2024-02-23T03:37:43;7.00;64.50
83553;DHT22;73510;50.866;5.420;2024-02-23T03:40:09;7.10;64.10
83553;DHT22;73510;50.866;5.420;2024-02-23T03:42:35;7.10;64.30
83553;DHT22;73510;50.866;5.420;2024-02-23T03:45:02;7.20;64.00
83553;DHT22;73510;50.866;5.420;2024-02-23T03:47:28;7.20;64.10
83553;DHT22;73510;50.866;5.420;2024-02-23T03:49:54;7.20;64.00
83553;DHT22;73510;50.866;5.420;2024-02-23T03:52:19;7.20;64.00
83553;DHT22;73510;50.866;5.420;2024-02-23T03:54:45;7.20;64.20
83553;DHT22;73510;50.866;5.420;2024-02-23T03:57:11;7.20;64.20
83553;DHT22;73510;50.866;5.420;2024-02-23T03:59:37;7.30;64.00
83553;DHT22;73510;50.866;5.420;2024-02-23T04:02:04;7.30;64.00
83553;DHT22;73510;50.866;5.420;2024-02-23T04:04:29;7.30;63.90
83553;DHT22;73510;50.866;5.420;2024-02-23T04:06:55;7.40;63.80
83553;DHT22;73510;50.866;5.420;2024-02-23T04:09:21;7.30;64.50
83553;DHT22;73510;50.866;5.420;2024-02-23T04:11:50;7.40;64.10
83553;DHT22;73510;50.866;5.420;2024-02-23T04:14:15;7.40;63.90
83553;DHT22;73510;50.866;5.420;2024-02-23T04:16:41;7.40;63.90
83553;DHT22;73510;50.866;5.420;2024-02-23T04:19:06;7.40;63.80
83553;DHT22;73510;50.866;5.420;2024-02-23T04:21:32;7.40;63.70
83553;DHT22;73510;50.866;5.420;2024-02-23T04:23:58;7.40;64.10
83553;DHT22;73510;50.866;5.420;2024-02-23T04:26:24;7.40;64.00
83553;DHT22;73510;50.866;5.420;2024-02-23T04:28:50;7.50;63.70
83553;DHT22;73510;50.866;5.420;2024-02-23T04:31:15;7.50;63.70
83553;DHT22;73510;50.866;5.420;2024-02-23T04:33:41;7.50;63.30
83553;DHT22;73510;50.866;5.420;2024-02-23T04:36:07;7.50;63.50
83553;DHT22;73510;50.866;5.420;2024-02-23T04:38:33;7.50;63.10
83553;DHT22;73510;50.866;5.420;2024-02-23T04:41:03;7.50;63.30
83553;DHT22;73510;50.866;5.420;2024-02-23T04:43:30;7.50;63.60
83553;DHT22;73510;50.866;5.420;2024-02-23T04:45:56;7.50;63.00
83553;DHT22;73510;50.866;5.420;2024-02-23T04:48:22;7.50;63.40
83553;DHT22;73510;50.866;5.420;2024-02-23T04:50:47;7.50;63.00
83553;DHT22;73510;50.866;5.420;2024-02-23T04:53:13;7.50;63.10
83553;DHT22;73510;50.866;5.420;2024-02-23T04:55:39;7.50;62.80
83553;DHT22;73510;50.866;5.420;2024-02-23T04:58:05;7.50;63.20
83553;DHT22;73510;50.866;5.420;2024-02-23T05:00:31;7.50;62.90
83553;DHT22;73510;50.866;5.420;2024-02-23T05:03:01;7.50;63.10
83553;DHT22;73510;50.866;5.420;2024-02-23T05:05:32;7.50;62.90
83553;DHT22;73510;50.866;5.420;2024-02-23T05:07:58;7.50;63.00
83553;DHT22;73510;50.866;5.420;2024-02-23T05:10:25;7.50;62.80
83553;DHT22;73510;50.866;5.420;2024-02-23T05:12:50;7.50;62.60
83553;DHT22;73510;50.866;5.420;2024-02-23T05:15:16;7.50;62.40
83553;DHT22;73510;50.866;5.420;2024-02-23T05:17:42;7.60;62.50
83553;DHT22;73510;50.866;5.420;2024-02-23T05:20:08;7.60;62.40
83553;DHT22;73510;50.866;5.420;2024-02-23T05:22:36;7.60;62.60
83553;DHT22;73510;50.866;5.420;2024-02-23T05:25:02;7.60;63.00
83553;DHT22;73510;50.866;5.420;2024-02-23T05:27:30;7.60;63.10
83553;DHT22;73510;50.866;5.420;2024-02-23T05:29:56;7.60;62.70
83553;DHT22;73510;50.866;5.420;2024-02-23T05:32:21;7.60;62.60
83553;DHT22;73510;50.866;5.420;2024-02-23T05:34:47;7.50;62.30
83553;DHT22;73510;50.866;5.420;2024-02-23T05:37:17;7.50;63.20
83553;DHT22;73510;50.866;5.420;2024-02-23T05:39:42;7.50;62.90
83553;DHT22;73510;50.866;5.420;2024-02-23T05:42:08;7.50;62.60
83553;DHT22;73510;50.866;5.420;2024-02-23T05:44:35;7.50;62.20
83553;DHT22;73510;50.866;5.420;2024-02-23T05:47:00;7.50;62.60
83553;DHT22;73510;50.866;5.420;2024-02-23T05:49:26;7.50;62.50
83553;DHT22;73510;50.866;5.420;2024-02-23T05:51:51;7.50;62.60
83553;DHT22;73510;50.866;5.420;2024-02-23T05:54:17;7.50;62.60
83553;DHT22;73510;50.866;5.420;2024-02-23T05:56:44;7.60;62.60
83553;DHT22;73510;50.866;5.420;2024-02-23T05:59:10;7.60;62.50
83553;DHT22;73510;50.866;5.420;2024-02-23T06:01:36;7.50;62.60
83553;DHT22;73510;50.866;5.420;2024-02-23T06:04:01;7.60;63.00
83553;DHT22;73510;50.866;5.420;2024-02-23T06:06:28;7.60;62.70
83553;DHT22;73510;50.866;5.420;2024-02-23T06:08:53;7.60;63.20
83553;DHT22;73510;50.866;5.420;2024-02-23T06:11:19;7.50;63.30
83553;DHT22;73510;50.866;5.420;2024-02-23T06:13:45;7.50;63.20
83553;DHT22;73510;50.866;5.420;2024-02-23T06:16:10;7.50;63.00
83553;DHT22;73510;50.866;5.420;2024-02-23T06:18:38;7.50;62.60
83553;DHT22;73510;50.866;5.420;2024-02-23T06:21:16;7.50;63.40
83553;DHT22;73510;50.866;5.420;2024-02-23T06:23:43;7.50;63.40
83553;DHT22;73510;50.866;5.420;2024-02-23T06:26:09;7.50;63.20
83553;DHT22;73510;50.866;5.420;2024-02-23T06:28:35;7.50;63.20
83553;DHT22;73510;50.866;5.420;2024-02-23T06:31:03;7.50;63.50
83553;DHT22;73510;50.866;5.420;2024-02-23T06:33:30;7.50;63.50
83553;DHT22;73510;50.866;5.420;2024-02-23T06:35:56;7.50;63.60
83553;DHT22;73510;50.866;5.420;2024-02-23T06:38:21;7.50;64.00
83553;DHT22;73510;50.866;5.420;2024-02-23T06:40:47;7.50;63.80
83553;DHT22;73510;50.866;5.420;2024-02-23T06:43:13;7.50;63.60
83553;DHT22;73510;50.866;5.420;2024-02-23T06:45:39;7.50;63.90
83553;DHT22;73510;50.866;5.420;2024-02-23T06:48:05;7.50;63.50
83553;DHT22;73510;50.866;5.420;2024-02-23T06:50:31;7.50;63.60
83553;DHT22;73510;50.866;5.420;2024-02-23T06:52:56;7.50;63.20
83553;DHT22;73510;50.866;5.420;2024-02-23T06:55:22;7.50;63.50
83553;DHT22;73510;50.866;5.420;2024-02-23T06:57:48;7.50;63.10
83553;DHT22;73510;50.866;5.420;2024-02-23T07:00:14;7.40;63.60
83553;DHT22;73510;50.866;5.420;2024-02-23T07:02:40;7.50;63.20
83553;DHT22;73510;50.866;5.420;2024-02-23T07:05:07;7.50;63.40
83553;DHT22;73510;50.866;5.420;2024-02-23T07:07:33;7.40;63.70
83553;DHT22;73510;50.866;5.420;2024-02-23T07:10:00;7.40;64.00
83553;DHT22;73510;50.866;5.420;2024-02-23T07:12:25;7.40;63.80
83553;DHT22;73510;50.866;5.420;2024-02-23T07:14:55;7.40;63.80
83553;DHT22;73510;50.866;5.420;2024-02-23T07:17:21;7.40;64.00
83553;DHT22;73510;50.866;5.420;2024-02-23T07:19:47;7.40;63.60
83553;DHT22;73510;50.866;5.420;2024-02-23T07:22:13;7.40;64.10
83553;DHT22;73510;50.866;5.420;2024-02-23T07:24:40;7.50;63.60
83553;DHT22;73510;50.866;5.420;2024-02-23T07:27:06;8.10;62.20
83553;DHT22;73510;50.866;5.420;2024-02-23T07:29:31;8.50;61.40
83553;DHT22;73510;50.866;5.420;2024-02-23T07:31:57;8.60;61.40
83553;DHT22;73510;50.866;5.420;2024-02-23T07:34:23;9.10;60.40
83553;DHT22;73510;50.866;5.420;2024-02-23T07:36:52;9.00;60.60
83553;DHT22;73510;50.866;5.420;2024-02-23T07:39:18;8.80;61.10
83553;DHT22;73510;50.866;5.420;2024-02-23T07:41:43;8.50;61.70
83553;DHT22;73510;50.866;5.420;2024-02-23T07:44:10;9.20;60.90
83553;DHT22;73510;50.866;5.420;2024-02-23T07:46:35;9.50;59.70
83553;DHT22;73510;50.866;5.420;2024-02-23T07:49:02;9.20;60.50
83553;DHT22;73510;50.866;5.420;2024-02-23T07:51:28;8.90;60.60
83553;DHT22;73510;50.866;5.420;2024-02-23T07:53:54;8.80;61.00
83553;DHT22;73510;50.866;5.420;2024-02-23T07:56:20;8.60;61.60
83553;DHT22;73510;50.866;5.420;2024-02-23T07:58:46;8.60;62.00
83553;DHT22;73510;50.866;5.420;2024-02-23T08:01:14;8.60;62.60
83553;DHT22;73510;50.866;5.420;2024-02-23T08:03:40;8.60;62.30
83553;DHT22;73510;50.866;5.420;2024-02-23T08:06:06;8.90;61.70
83553;DHT22;73510;50.866;5.420;2024-02-23T08:08:32;9.00;61.70
83553;DHT22;73510;50.866;5.420;2024-02-23T08:11:04;9.30;60.90
83553;DHT22;73510;50.866;5.420;2024-02-23T08:13:30;9.30;60.70
83553;DHT22;73510;50.866;5.420;2024-02-23T08:15:57;9.20;61.60
83553;DHT22;73510;50.866;5.420;2024-02-23T08:18:23;9.00;61.30
83553;DHT22;73510;50.866;5.420;2024-02-23T08:20:49;9.00;61.30
83553;DHT22;73510;50.866;5.420;2024-02-23T08:23:14;9.00;61.40
83553;DHT22;73510;50.866;5.420;2024-02-23T08:25:41;9.00;61.00
83553;DHT22;73510;50.866;5.420;2024-02-23T08:28:06;9.20;61.00
83553;DHT22;73510;50.866;5.420;2024-02-23T08:30:32;9.40;60.80
83553;DHT22;73510;50.866;5.420;2024-02-23T08:32:58;9.60;59.80
83553;DHT22;73510;50.866;5.420;2024-02-23T08:35:25;9.70;60.20
83553;DHT22;73510;50.866;5.420;2024-02-23T08:37:50;9.70;59.90
83553;DHT22;73510;50.866;5.420;2024-02-23T08:40:16;9.60;60.20
83553;DHT22;73510;50.866;5.420;2024-02-23T08:42:42;9.50;60.00
83553;DHT22;73510;50.866;5.420;2024-02-23T08:45:08;9.40;60.40
83553;DHT22;73510;50.866;5.420;2024-02-23T08:47:37;9.40;60.30
83553;DHT22;73510;50.866;5.420;2024-02-23T08:50:03;9.40;60.70
83553;DHT22;73510;50.866;5.420;2024-02-23T08:52:30;9.60;60.40
83553;DHT22;73510;50.866;5.420;2024-02-23T08:54:55;9.90;59.70
83553;DHT22;73510;50.866;5.420;2024-02-23T08:57:21;10.00;59.30
83553;DHT22;73510;50.866;5.420;2024-02-23T08:59:48;10.00;59.00
83553;DHT22;73510;50.866;5.420;2024-02-23T09:02:14;10.10;58.70
83553;DHT22;73510;50.866;5.420;2024-02-23T09:04:41;10.10;59.50
83553;DHT22;73510;50.866;5.420;2024-02-23T09:07:06;10.10;58.70
83553;DHT22;73510;50.866;5.420;2024-02-23T09:09:32;10.10;58.50
83553;DHT22;73510;50.866;5.420;2024-02-23T09:11:57;10.10;58.40
83553;DHT22;73510;50.866;5.420;2024-02-23T09:14:23;10.10;58.40
83553;DHT22;73510;50.866;5.420;2024-02-23T09:16:51;10.40;58.20
83553;DHT22;73510;50.866;5.420;2024-02-23T09:19:17;11.00;56.60
83553;DHT22;73510;50.866;5.420;2024-02-23T09:21:44;10.90;57.10
83553;DHT22;73510;50.866;5.420;2024-02-23T09:24:10;10.80;57.70
83553;DHT22;73510;50.866;5.420;2024-02-23T09:26:35;10.70;56.90
83553;DHT22;73510;50.866;5.420;2024-02-23T09:29:01;10.60;56.30
83553;DHT22;73510;50.866;5.420;2024-02-23T09:31:27;10.40;56.50
83553;DHT22;73510;50.866;5.420;2024-02-23T09:33:56;10.40;56.80
83553;DHT22;73510;50.866;5.420;2024-02-23T09:36:22;10.60;57.20
83553;DHT22;73510;50.866;5.420;2024-02-23T09:38:48;11.20;56.50
83553;DHT22;73510;50.866;5.420;2024-02-23T09:41:23;11.60;55.90
83553;DHT22;73510;50.866;5.420;2024-02-23T09:43:50;11.90;54.90
83553;DHT22;73510;50.866;5.420;2024-02-23T09:46:16;12.30;54.60
83553;DHT22;73510;50.866;5.420;2024-02-23T09:48:43;12.90;54.30
83553;DHT22;73510;50.866;5.420;2024-02-23T09:51:10;13.70;52.40
83553;DHT22;73510;50.866;5.420;2024-02-23T09:53:37;14.80;51.10
83553;DHT22;73510;50.866;5.420;2024-02-23T09:56:04;15.50;50.80
83553;DHT22;73510;50.866;5.420;2024-02-23T09:58:34;16.20;49.60
83553;DHT22;73510;50.866;5.420;2024-02-23T10:01:02;16.70;48.60
83553;DHT22;73510;50.866;5.420;2024-02-23T10:03:29;17.20;48.20
83553;DHT22;73510;50.866;5.420;2024-02-23T10:05:58;17.40;47.70
83553;DHT22;73510;50.866;5.420;2024-02-23T10:08:24;16.80;47.80
83553;DHT22;73510;50.866;5.420;2024-02-23T10:10:49;16.50;48.10
83553;DHT22;73510;50.866;5.420;2024-02-23T10:13:19;16.70;49.10
83553;DHT22;73510;50.866;5.420;2024-02-23T10:15:49;17.00;47.50
83553;DHT22;73510;50.866;5.420;2024-02-23T10:18:16;17.00;47.60
83553;DHT22;73510;50.866;5.420;2024-02-23T10:20:42;16.80;48.70
83553;DHT22;73510;50.866;5.420;2024-02-23T10:23:09;17.20;47.50
83553;DHT22;73510;50.866;5.420;2024-02-23T10:25:36;17.20;47.20
83553;DHT22;73510;50.866;5.420;2024-02-23T10:28:06;17.40;48.10
83553;DHT22;73510;50.866;5.420;2024-02-23T10:30:32;17.20;48.00
83553;DHT22;73510;50.866;5.420;2024-02-23T10:32:58;16.70;48.20
83553;DHT22;73510;50.866;5.420;2024-02-23T10:35:25;16.10;49.00
83553;DHT22;73510;50.866;5.420;2024-02-23T10:37:52;15.70;49.40
83553;DHT22;73510;50.866;5.420;2024-02-23T10:40:20;15.30;50.00
83553;DHT22;73510;50.866;5.420;2024-02-23T10:42:47;15.10;50.30
83553;DHT22;73510;50.866;5.420;2024-02-23T10:45:16;14.60;50.10
83553;DHT22;73510;50.866;5.420;2024-02-23T10:47:42;14.20;50.50
83553;DHT22;73510;50.866;5.420;2024-02-23T10:50:09;13.90;51.70
83553;DHT22;73510;50.866;5.420;2024-02-23T10:52:35;13.60;52.20
83553;DHT22;73510;50.866;5.420;2024-02-23T10:55:04;13.50;52.80
83553;DHT22;73510;50.866;5.420;2024-02-23T10:57:31;13.40;53.60
83553;DHT22;73510;50.866;5.420;2024-02-23T11:00:00;13.40;52.80
83553;DHT22;73510;50.866;5.420;2024-02-23T11:02:28;13.30;52.60
83553;DHT22;73510;50.866;5.420;2024-02-23T11:04:57;13.10;53.50
83553;DHT22;73510;50.866;5.420;2024-02-23T11:07:24;13.00;53.20
83553;DHT22;73510;50.866;5.420;2024-02-23T11:10:04;12.80;53.30
83553;DHT22;73510;50.866;5.420;2024-02-23T11:12:30;12.70;53.20
83553;DHT22;73510;50.866;5.420;2024-02-23T11:15:00;12.50;53.70
83553;DHT22;73510;50.866;5.420;2024-02-23T11:17:27;12.50;54.90
83553;DHT22;73510;50.866;5.420;2024-02-23T11:19:55;12.30;55.20
83553;DHT22;73510;50.866;5.420;2024-02-23T11:22:26;12.30;54.50
83553;DHT22;73510;50.866;5.420;2024-02-23T11:24:52;12.30;53.80
83553;DHT22;73510;50.866;5.420;2024-02-23T11:27:18;12.20;55.20
83553;DHT22;73510;50.866;5.420;2024-02-23T11:29:47;12.30;55.20
83553;DHT22;73510;50.866;5.420;2024-02-23T11:32:17;12.50;55.70
83553;DHT22;73510;50.866;5.420;2024-02-23T11:34:54;12.50;54.70
83553;DHT22;73510;50.866;5.420;2024-02-23T11:37:21;12.50;53.50
83553;DHT22;73510;50.866;5.420;2024-02-23T11:39:48;12.70;54.00
83553;DHT22;73510;50.866;5.420;2024-02-23T11:42:14;12.70;54.80
83553;DHT22;73510;50.866;5.420;2024-02-23T11:44:41;12.70;54.40
83553;DHT22;73510;50.866;5.420;2024-02-23T11:47:07;12.70;54.20
83553;DHT22;73510;50.866;5.420;2024-02-23T11:49:33;12.70;54.00
83553;DHT22;73510;50.866;5.420;2024-02-23T11:51:59;12.70;53.90
83553;DHT22;73510;50.866;5.420;2024-02-23T11:54:25;12.70;54.70
83553;DHT22;73510;50.866;5.420;2024-02-23T11:56:51;12.70;54.30
83553;DHT22;73510;50.866;5.420;2024-02-23T11:59:21;12.70;54.20
83553;DHT22;73510;50.866;5.420;2024-02-23T12:01:48;12.70;54.10
83553;DHT22;73510;50.866;5.420;2024-02-23T12:04:14;12.70;55.30
83553;DHT22;73510;50.866;5.420;2024-02-23T12:06:42;12.80;55.00
83553;DHT22;73510;50.866;5.420;2024-02-23T12:09:08;12.80;54.30
83553;DHT22;73510;50.866;5.420;2024-02-23T12:11:34;12.80;55.30
83553;DHT22;73510;50.866;5.420;2024-02-23T12:14:00;12.80;54.70
83553;DHT22;73510;50.866;5.420;2024-02-23T12:16:33;12.80;54.10
83553;DHT22;73510;50.866;5.420;2024-02-23T12:19:01;12.80;54.20
83553;DHT22;73510;50.866;5.420;2024-02-23T12:21:26;12.80;54.90
83553;DHT22;73510;50.866;5.420;2024-02-23T12:23:53;12.80;54.40
83553;DHT22;73510;50.866;5.420;2024-02-23T12:26:19;12.70;54.30
83553;DHT22;73510;50.866;5.420;2024-02-23T12:28:45;12.70;54.90
83553;DHT22;73510;50.866;5.420;2024-02-23T12:31:11;12.70;54.10
83553;DHT22;73510;50.866;5.420;2024-02-23T12:33:38;12.70;55.00
83553;DHT22;73510;50.866;5.420;2024-02-23T12:36:08;12.70;54.30
83553;DHT22;73510;50.866;5.420;2024-02-23T12:38:35;12.60;55.30
83553;DHT22;73510;50.866;5.420;2024-02-23T12:41:03;12.70;55.30
83553;DHT22;73510;50.866;5.420;2024-02-23T12:43:30;12.70;54.20
83553;DHT22;73510;50.866;5.420;2024-02-23T12:45:56;12.60;55.70
83553;DHT22;73510;50.866;5.420;2024-02-23T12:48:22;12.50;54.50
83553;DHT22;73510;50.866;5.420;2024-02-23T12:50:49;12.50;54.10
83553;DHT22;73510;50.866;5.420;2024-02-23T12:53:31;12.40;55.60
83553;DHT22;73510;50.866;5.420;2024-02-23T12:55:58;12.20;55.20
83553;DHT22;73510;50.866;5.420;2024-02-23T12:58:23;12.20;55.30
83553;DHT22;73510;50.866;5.420;2024-02-23T13:00:49;12.20;55.20
83553;DHT22;73510;50.866;5.420;2024-02-23T13:03:15;12.20;56.00
83553;DHT22;73510;50.866;5.420;2024-02-23T13:05:41;12.20;55.60
83553;DHT22;73510;50.866;5.420;2024-02-23T13:08:07;12.30;55.70
83553;DHT22;73510;50.866;5.420;2024-02-23T13:10:32;12.20;54.80
83553;DHT22;73510;50.866;5.420;2024-02-23T13:13:00;12.10;55.10
83553;DHT22;73510;50.866;5.420;2024-02-23T13:15:26;12.10;55.00
83553;DHT22;73510;50.866;5.420;2024-02-23T13:17:51;12.20;55.00
83553;DHT22;73510;50.866;5.420;2024-02-23T13:20:17;12.30;54.90
83553;DHT22;73510;50.866;5.420;2024-02-23T13:22:44;12.40;55.60
83553;DHT22;73510;50.866;5.420;2024-02-23T13:25:09;12.40;55.80
83553;DHT22;73510;50.866;5.420;2024-02-23T13:27:35;12.40;55.80
83553;DHT22;73510;50.866;5.420;2024-02-23T13:30:02;12.50;56.70
83553;DHT22;73510;50.866;5.420;2024-02-23T13:32:28;12.50;55.80
83553;DHT22;73510;50.866;5.420;2024-02-23T13:34:54;12.70;55.60
83553;DHT22;73510;50.866;5.420;2024-02-23T13:37:19;12.70;54.20
83553;DHT22;73510;50.866;5.420;2024-02-23T13:39:45;12.70;54.70
83553;DHT22;73510;50.866;5.420;2024-02-23T13:42:10;12.70;55.40
83553;DHT22;73510;50.866;5.420;2024-02-23T13:44:37;12.80;55.00
83553;DHT22;73510;50.866;5.420;2024-02-23T13:47:02;12.80;55.00
83553;DHT22;73510;50.866;5.420;2024-02-23T13:49:28;12.80;54.50
83553;DHT22;73510;50.866;5.420;2024-02-23T13:51:54;12.70;54.90
83553;DHT22;73510;50.866;5.420;2024-02-23T13:54:20;12.70;55.30
83553;DHT22;73510;50.866;5.420;2024-02-23T13:56:46;12.70;55.40
83553;DHT22;73510;50.866;5.420;2024-02-23T13:59:12;12.60;54.90
83553;DHT22;73510;50.866;5.420;2024-02-23T14:01:38;12.50;54.70
83553;DHT22;73510;50.866;5.420;2024-02-23T14:04:07;12.30;54.90
83553;DHT22;73510;50.866;5.420;2024-02-23T14:06:33;12.20;55.30
83553;DHT22;73510;50.866;5.420;2024-02-23T14:08:59;12.10;56.70
83553;DHT22;73510;50.866;5.420;2024-02-23T14:11:24;11.90;56.70
83553;DHT22;73510;50.866;5.420;2024-02-23T14:13:50;11.90;56.80
83553;DHT22;73510;50.866;5.420;2024-02-23T14:16:16;11.80;56.60
83553;DHT22;73510;50.866;5.420;2024-02-23T14:18:42;11.70;57.30
83553;DHT22;73510;50.866;5.420;2024-02-23T14:21:10;11.70;56.70
83553;DHT22;73510;50.866;5.420;2024-02-23T14:23:36;11.70;56.80
83553;DHT22;73510;50.866;5.420;2024-02-23T14:26:03;11.80;55.00
83553;DHT22;73510;50.866;5.420;2024-02-23T14:28:29;11.70;55.90
83553;DHT22;73510;50.866;5.420;2024-02-23T14:30:54;11.70;55.20
83553;DHT22;73510;50.866;5.420;2024-02-23T14:33:20;11.70;54.60
83553;DHT22;73510;50.866;5.420;2024-02-23T14:35:46;11.70;54.60
83553;DHT22;73510;50.866;5.420;2024-02-23T14:38:12;11.70;55.10
83553;DHT22;73510;50.866;5.420;2024-02-23T14:40:38;11.70;55.00
83553;DHT22;73510;50.866;5.420;2024-02-23T14:43:05;11.80;55.90
83553;DHT22;73510;50.866;5.420;2024-02-23T14:45:30;11.80;55.00
83553;DHT22;73510;50.866;5.420;2024-02-23T14:47:57;11.90;55.70
83553;DHT22;73510;50.866;5.420;2024-02-23T14:50:24;11.80;54.90
83553;DHT22;73510;50.866;5.420;2024-02-23T14:52:50;11.90;54.60
83553;DHT22;73510;50.866;5.420;2024-02-23T14:55:15;11.90;55.00
83553;DHT22;73510;50.866;5.420;2024-02-23T14:57:41;11.90;55.20
83553;DHT22;73510;50.866;5.420;2024-02-23T15:00:08;11.90;54.80
83553;DHT22;73510;50.866;5.420;2024-02-23T15:02:35;11.70;55.40
83553;DHT22;73510;50.866;5.420;2024-02-23T15:05:01;11.70;55.50
83553;DHT22;73510;50.866;5.420;2024-02-23T15:07:27;11.70;55.20
83553;DHT22;73510;50.866;5.420;2024-02-23T15:09:53;11.70;55.20
83553;DHT22;73510;50.866;5.420;2024-02-23T15:12:19;11.70;55.00
83553;DHT22;73510;50.866;5.420;2024-02-23T15:14:47;11.70;55.30
83553;DHT22;73510;50.866;5.420;2024-02-23T15:17:13;11.70;55.20
83553;DHT22;73510;50.866;5.420;2024-02-23T15:19:39;11.70;54.90
83553;DHT22;73510;50.866;5.420;2024-02-23T15:22:05;11.70;55.20
83553;DHT22;73510;50.866;5.420;2024-02-23T15:24:33;11.60;54.80
83553;DHT22;73510;50.866;5.420;2024-02-23T15:26:59;11.60;54.90
83553;DHT22;73510;50.866;5.420;2024-02-23T15:29:25;11.60;55.20
83553;DHT22;73510;50.866;5.420;2024-02-23T15:31:50;11.60;56.00
83553;DHT22;73510;50.866;5.420;2024-02-23T15:34:17;11.60;55.10